createdAt,value
2018-11-06T00:01:05.139Z,19.20
2018-11-06T00:03:38.983Z,17.33
2018-11-06T00:06:07.548Z,20.57
2018-11-06T00:08:35.964Z,19.53
2018-11-06T00:11:05.027Z,17.60
2018-11-06T00:13:33.568Z,18.80
2018-11-06T00:16:02.015Z,19.23
2018-11-06T00:18:30.647Z,16.90
2018-11-06T00:20:59.475Z,19.73
2018-11-06T00:23:27.979Z,16.77
2018-11-06T00:25:56.458Z,14.80
2018-11-06T00:28:25.107Z,13.83
2018-11-06T00:30:53.722Z,13.90
2018-11-06T00:33:22.184Z,15.30
2018-11-06T00:35:50.647Z,14.50
2018-11-06T00:38:19.305Z,14.43
2018-11-06T00:40:47.740Z,15.63
2018-11-06T00:43:16.170Z,15.90
2018-11-06T00:45:44.647Z,16.60
2018-11-06T00:48:13.004Z,16.33
2018-11-06T00:50:41.319Z,14.97
2018-11-06T00:53:09.876Z,15.97
2018-11-06T00:55:38.439Z,15.97
2018-11-06T00:58:06.796Z,15.43
2018-11-06T01:00:35.157Z,14.90
2018-11-06T01:03:03.651Z,15.13
2018-11-06T01:05:31.982Z,12.60
2018-11-06T01:08:00.492Z,13.97
2018-11-06T01:10:28.855Z,13.90
2018-11-06T01:12:57.198Z,12.63
2018-11-06T01:15:25.684Z,13.47
2018-11-06T01:17:54.205Z,13.33
2018-11-06T01:20:22.598Z,10.53
2018-11-06T01:22:51.072Z,11.90
2018-11-06T01:25:19.500Z,13.70
2018-11-06T01:27:47.854Z,13.33
2018-11-06T01:30:18.986Z,12.70
2018-11-06T01:32:47.687Z,12.00
2018-11-06T01:35:16.650Z,11.80
2018-11-06T01:37:45.575Z,12.40
2018-11-06T01:40:15.209Z,10.97
2018-11-06T01:42:44.276Z,12.27
2018-11-06T01:45:14.614Z,10.30
2018-11-06T01:47:43.269Z,8.93
2018-11-06T01:50:13.369Z,8.97
2018-11-06T01:52:42.774Z,9.60
2018-11-06T01:55:11.996Z,10.80
2018-11-06T01:57:40.471Z,10.50
2018-11-06T02:00:13.404Z,9.87
2018-11-06T02:02:41.799Z,9.30
2018-11-06T02:05:11.727Z,8.10
2018-11-06T02:07:40.690Z,8.10
2018-11-06T02:10:10.312Z,8.10
2018-11-06T02:12:38.837Z,7.67
2018-11-06T02:15:07.805Z,7.97
2018-11-06T02:17:36.354Z,7.07
2018-11-06T02:20:04.884Z,6.40
2018-11-06T02:22:33.501Z,6.00
2018-11-06T02:25:01.868Z,5.70
2018-11-06T02:27:30.274Z,6.20
2018-11-06T02:29:58.775Z,5.80
2018-11-06T02:32:27.331Z,6.50
2018-11-06T02:34:55.620Z,6.10
2018-11-06T02:37:23.978Z,7.37
2018-11-06T02:39:52.421Z,5.03
2018-11-06T02:42:20.760Z,5.87
2018-11-06T02:44:49.384Z,6.13
2018-11-06T02:47:17.722Z,5.70
2018-11-06T02:49:46.064Z,4.80
2018-11-06T02:52:14.696Z,5.30
2018-11-06T02:54:43.238Z,5.40
2018-11-06T02:57:11.588Z,4.80
2018-11-06T02:59:39.999Z,5.80
2018-11-06T03:02:08.715Z,5.13
2018-11-06T03:04:37.182Z,5.60
2018-11-06T03:07:05.660Z,5.00
2018-11-06T03:09:34.232Z,5.07
2018-11-06T03:12:02.632Z,4.40
2018-11-06T03:14:30.967Z,4.60
2018-11-06T03:16:59.605Z,4.40
2018-11-06T03:19:28.067Z,4.37
2018-11-06T03:21:56.470Z,4.03
2018-11-06T03:24:24.871Z,3.40
2018-11-06T03:26:53.443Z,4.00
2018-11-06T03:29:21.903Z,3.50
2018-11-06T03:31:50.278Z,4.47
2018-11-06T03:34:18.837Z,4.37
2018-11-06T03:36:47.342Z,3.60
2018-11-06T03:39:15.764Z,3.67
2018-11-06T03:41:44.362Z,3.80
2018-11-06T03:44:12.757Z,3.97
2018-11-06T03:46:41.123Z,2.97
2018-11-06T03:49:09.709Z,3.57
2018-11-06T03:51:38.142Z,4.00
2018-11-06T03:54:06.537Z,3.30
2018-11-06T03:56:35.844Z,3.47
2018-11-06T03:59:04.390Z,2.83
2018-11-06T04:01:32.830Z,4.60
2018-11-06T04:04:01.366Z,3.30
2018-11-06T04:06:29.745Z,2.83
2018-11-06T04:08:58.119Z,4.63
2018-11-06T04:11:26.585Z,2.60
2018-11-06T04:13:55.000Z,3.20
2018-11-06T04:16:23.519Z,3.17
2018-11-06T04:18:52.060Z,2.97
2018-11-06T04:21:27.838Z,3.17
2018-11-06T04:23:56.430Z,3.20
2018-11-06T04:26:24.960Z,3.23
2018-11-06T04:28:53.387Z,3.43
2018-11-06T04:31:21.962Z,2.60
2018-11-06T04:33:50.397Z,2.53
2018-11-06T04:36:18.822Z,2.80
2018-11-06T04:38:47.412Z,2.77
2018-11-06T04:41:15.945Z,3.37
2018-11-06T04:43:44.395Z,2.90
2018-11-06T04:46:12.888Z,2.70
2018-11-06T04:48:41.383Z,2.00
2018-11-06T04:51:09.805Z,1.90
2018-11-06T04:53:38.304Z,2.43
2018-11-06T04:56:06.720Z,2.23
2018-11-06T04:58:35.176Z,2.60
2018-11-06T05:01:03.665Z,3.10
2018-11-06T05:03:32.071Z,1.63
2018-11-06T05:06:00.530Z,1.97
2018-11-06T05:08:28.992Z,2.57
2018-11-06T05:10:57.397Z,2.40
2018-11-06T05:13:25.791Z,2.50
2018-11-06T05:15:54.337Z,2.30
2018-11-06T05:18:22.917Z,1.87
2018-11-06T05:20:51.305Z,2.27
2018-11-06T05:23:19.710Z,2.27
2018-11-06T05:25:48.250Z,2.57
2018-11-06T05:28:16.655Z,2.23
2018-11-06T05:30:45.243Z,2.17
2018-11-06T05:33:13.634Z,2.20
2018-11-06T05:35:42.021Z,2.13
2018-11-06T05:38:10.641Z,2.77
2018-11-06T05:40:54.293Z,2.63
2018-11-06T05:43:22.871Z,2.00
2018-11-06T05:45:52.095Z,1.93
2018-11-06T05:48:20.566Z,1.97
2018-11-06T05:50:49.181Z,3.30
2018-11-06T05:53:18.128Z,2.23
2018-11-06T05:55:46.748Z,1.33
2018-11-06T05:58:15.274Z,1.90
2018-11-06T06:00:43.681Z,1.70
2018-11-06T06:05:46.798Z,1.73
2018-11-06T06:08:15.183Z,1.47
2018-11-06T06:10:43.682Z,1.57
2018-11-06T06:13:12.185Z,1.90
2018-11-06T06:15:40.771Z,1.60
2018-11-06T06:18:09.245Z,1.73
2018-11-06T06:20:37.700Z,1.63
2018-11-06T06:23:06.539Z,1.40
2018-11-06T06:25:35.094Z,1.53
2018-11-06T06:28:03.473Z,2.10
2018-11-06T06:30:31.955Z,2.40
2018-11-06T06:33:00.322Z,2.43
2018-11-06T06:35:28.754Z,2.20
2018-11-06T06:37:58.074Z,3.67
2018-11-06T06:40:26.520Z,3.00
2018-11-06T06:42:54.903Z,2.63
2018-11-06T06:45:23.299Z,2.20
2018-11-06T06:47:51.758Z,2.60
2018-11-06T06:50:20.427Z,2.40
2018-11-06T06:52:49.214Z,2.30
2018-11-06T06:55:17.971Z,2.50
2018-11-06T06:57:47.325Z,3.27
2018-11-06T07:00:17.846Z,3.50
2018-11-06T07:02:46.746Z,4.20
2018-11-06T07:05:17.679Z,4.80
2018-11-06T07:07:46.091Z,5.17
2018-11-06T07:10:15.787Z,6.83
2018-11-06T07:12:45.247Z,5.87
2018-11-06T07:15:14.751Z,6.83
2018-11-06T07:17:43.909Z,7.33
2018-11-06T07:20:15.718Z,9.20
2018-11-06T07:22:44.195Z,8.13
2018-11-06T07:25:13.162Z,9.10
2018-11-06T07:27:42.706Z,10.33
2018-11-06T07:30:16.311Z,12.47
2018-11-06T07:32:45.109Z,9.77
2018-11-06T07:35:14.247Z,10.20
2018-11-06T07:37:43.015Z,12.23
2018-11-06T07:40:12.817Z,9.20
2018-11-06T07:42:41.442Z,10.73
2018-11-06T07:45:11.869Z,10.20
2018-11-06T07:47:40.453Z,10.63
2018-11-06T07:50:09.857Z,8.40
2018-11-06T07:52:38.904Z,7.00
2018-11-06T07:55:09.006Z,8.10
2018-11-06T07:57:37.622Z,9.77
2018-11-06T08:00:10.042Z,10.50
2018-11-06T08:02:38.455Z,9.43
2018-11-06T08:05:07.015Z,7.27
2018-11-06T08:07:35.424Z,9.63
2018-11-06T08:10:03.958Z,6.40
2018-11-06T08:12:32.454Z,8.93
2018-11-06T08:15:00.971Z,4.30
2018-11-06T08:17:29.371Z,4.03
2018-11-06T08:19:57.762Z,3.50
2018-11-06T08:22:26.142Z,3.13
2018-11-06T08:24:54.619Z,2.97
2018-11-06T08:27:23.438Z,2.67
2018-11-06T08:29:51.846Z,5.00
2018-11-06T08:32:20.336Z,4.70
2018-11-06T08:34:48.755Z,4.50
2018-11-06T08:37:17.203Z,4.90
2018-11-06T08:39:45.816Z,3.53
2018-11-06T08:42:14.435Z,3.37
2018-11-06T08:44:42.900Z,3.60
2018-11-06T08:47:11.314Z,2.40
2018-11-06T08:49:39.754Z,1.83
2018-11-06T08:52:08.637Z,2.00
2018-11-06T08:54:37.327Z,2.33
2018-11-06T08:57:05.846Z,2.23
2018-11-06T08:59:34.228Z,2.10
2018-11-06T09:02:02.725Z,2.03
2018-11-06T09:04:31.410Z,1.97
2018-11-06T09:06:59.976Z,1.90
2018-11-06T09:09:28.493Z,3.10
2018-11-06T09:11:56.913Z,1.83
2018-11-06T09:14:25.378Z,2.47
2018-11-06T09:16:53.807Z,1.40
2018-11-06T09:19:22.209Z,1.80
2018-11-06T09:21:50.739Z,1.67
2018-11-06T09:24:19.395Z,1.73
2018-11-06T09:26:48.260Z,1.80
2018-11-06T09:29:16.706Z,2.27
2018-11-06T09:31:45.129Z,1.70
2018-11-06T09:34:13.699Z,1.60
2018-11-06T09:36:42.391Z,2.03
2018-11-06T09:39:11.593Z,1.40
2018-11-06T09:41:41.144Z,1.87
2018-11-06T09:44:10.820Z,1.90
2018-11-06T09:46:40.692Z,1.80
2018-11-06T09:49:09.178Z,1.60
2018-11-06T09:51:37.790Z,1.70
2018-11-06T09:54:06.536Z,2.13
2018-11-06T09:56:35.129Z,1.40
2018-11-06T09:59:03.737Z,1.60
2018-11-06T10:01:32.178Z,1.20
2018-11-06T10:04:00.590Z,2.50
2018-11-06T10:06:29.082Z,2.10
2018-11-06T10:08:57.431Z,2.07
2018-11-06T10:11:26.999Z,2.20
2018-11-06T10:13:56.883Z,1.53
2018-11-06T10:16:25.554Z,1.77
2018-11-06T10:18:54.921Z,1.77
2018-11-06T10:21:24.406Z,2.00
2018-11-06T10:23:53.810Z,3.03
2018-11-06T10:26:22.407Z,1.70
2018-11-06T10:28:50.812Z,2.10
2018-11-06T10:31:19.247Z,2.07
2018-11-06T10:33:47.723Z,2.40
2018-11-06T10:36:16.397Z,2.13
2018-11-06T10:38:44.843Z,1.63
2018-11-06T10:41:13.367Z,2.63
2018-11-06T10:43:41.807Z,2.57
2018-11-06T10:46:10.285Z,2.53
2018-11-06T10:48:38.952Z,2.90
2018-11-06T10:51:07.440Z,3.10
2018-11-06T10:53:35.871Z,2.87
2018-11-06T10:56:04.355Z,2.30
2018-11-06T10:58:32.735Z,2.87
2018-11-06T11:01:06.383Z,2.90
2018-11-06T11:03:38.947Z,2.17
2018-11-06T11:06:07.602Z,3.20
2018-11-06T11:08:36.067Z,3.60
2018-11-06T11:11:04.547Z,4.67
2018-11-06T11:13:33.256Z,4.20
2018-11-06T11:16:01.730Z,3.50
2018-11-06T11:18:30.198Z,4.57
2018-11-06T11:20:58.610Z,3.70
2018-11-06T11:23:27.046Z,4.10
2018-11-06T11:25:55.554Z,3.90
2018-11-06T11:28:24.162Z,4.47
2018-11-06T11:30:52.616Z,3.73
2018-11-06T11:33:21.008Z,3.47
2018-11-06T11:35:49.409Z,3.33
2018-11-06T11:38:17.856Z,3.37
2018-11-06T11:40:46.269Z,2.53
2018-11-06T11:43:14.720Z,2.60
2018-11-06T11:45:43.140Z,3.20
2018-11-06T11:48:11.585Z,2.70
2018-11-06T11:50:40.057Z,3.13
2018-11-06T11:53:08.513Z,2.80
2018-11-06T11:55:36.991Z,2.47
2018-11-06T11:58:05.721Z,2.17
2018-11-06T12:00:37.763Z,2.30
2018-11-06T12:03:06.863Z,2.40
2018-11-06T12:05:35.286Z,2.70
2018-11-06T12:08:03.709Z,2.03
2018-11-06T12:10:32.182Z,3.27
2018-11-06T12:13:00.626Z,2.60
2018-11-06T12:15:29.133Z,2.40
2018-11-06T12:17:57.603Z,2.80
2018-11-06T12:20:26.020Z,2.80
2018-11-06T12:22:54.414Z,2.60
2018-11-06T12:25:23.132Z,2.27
2018-11-06T12:27:51.327Z,2.23
2018-11-06T12:30:19.889Z,2.27
2018-11-06T12:32:48.343Z,2.20
2018-11-06T12:35:16.833Z,2.53
2018-11-06T12:37:45.342Z,2.33
2018-11-06T12:40:14.247Z,2.33
2018-11-06T12:42:42.902Z,2.17
2018-11-06T12:45:12.703Z,1.97
2018-11-06T12:47:41.302Z,2.13
2018-11-06T12:50:10.032Z,2.10
2018-11-06T12:52:38.613Z,1.90
2018-11-06T12:55:08.248Z,1.97
2018-11-06T12:57:36.922Z,2.37
2018-11-06T13:00:06.534Z,2.10
2018-11-06T13:02:35.038Z,1.93
2018-11-06T13:05:03.482Z,1.80
2018-11-06T13:07:31.925Z,2.20
2018-11-06T13:10:00.433Z,2.60
2018-11-06T13:12:29.029Z,2.60
2018-11-06T13:14:58.991Z,2.80
2018-11-06T13:17:26.060Z,2.60
2018-11-06T13:19:54.659Z,2.77
2018-11-06T13:22:23.158Z,3.03
2018-11-06T13:24:51.972Z,2.20
2018-11-06T13:27:20.393Z,3.43
2018-11-06T13:29:48.900Z,2.23
2018-11-06T13:32:17.411Z,2.90
2018-11-06T13:34:45.903Z,3.13
2018-11-06T13:37:14.485Z,2.70
2018-11-06T13:39:43.086Z,3.23
2018-11-06T13:42:11.697Z,2.57
2018-11-06T13:44:40.484Z,2.33
2018-11-06T13:47:08.937Z,2.93
2018-11-06T13:49:37.878Z,3.03
2018-11-06T13:52:06.733Z,2.43
2018-11-06T13:54:35.272Z,2.73
2018-11-06T13:57:03.826Z,2.80
2018-11-06T13:59:32.377Z,2.13
2018-11-06T14:02:00.998Z,2.50
2018-11-06T14:04:29.691Z,2.53
2018-11-06T14:06:58.235Z,2.40
2018-11-06T14:09:26.747Z,2.63
2018-11-06T14:11:55.271Z,2.53
2018-11-06T14:14:23.886Z,3.27
2018-11-06T14:16:52.737Z,2.50
2018-11-06T14:19:21.314Z,2.53
2018-11-06T14:21:49.712Z,2.77
2018-11-06T14:24:18.139Z,2.40
2018-11-06T14:26:46.744Z,2.33
2018-11-06T14:29:15.618Z,2.63
2018-11-06T14:31:44.372Z,2.77
2018-11-06T14:34:12.832Z,2.40
2018-11-06T14:36:41.235Z,2.23
2018-11-06T14:39:09.720Z,3.27
2018-11-06T14:41:38.282Z,3.30
2018-11-06T14:44:07.004Z,2.70
2018-11-06T14:46:35.762Z,2.43
2018-11-06T14:49:04.417Z,3.00
2018-11-06T14:51:32.675Z,3.97
2018-11-06T14:54:01.110Z,3.23
2018-11-06T14:56:29.733Z,3.10
2018-11-06T14:58:58.399Z,2.87
2018-11-06T15:01:26.931Z,2.13
2018-11-06T15:03:55.639Z,3.00
2018-11-06T15:06:24.187Z,2.30
2018-11-06T15:08:52.622Z,3.93
2018-11-06T15:11:21.162Z,3.20
2018-11-06T15:13:49.714Z,2.90
2018-11-06T15:16:18.315Z,3.17
2018-11-06T15:18:46.806Z,2.80
2018-11-06T15:21:15.381Z,3.50
2018-11-06T15:23:44.169Z,3.03
2018-11-06T15:26:12.899Z,3.57
2018-11-06T15:28:41.555Z,3.60
2018-11-06T15:31:10.580Z,3.10
2018-11-06T15:33:39.204Z,3.00
2018-11-06T15:36:07.791Z,3.60
2018-11-06T15:38:36.759Z,3.43
2018-11-06T15:41:05.628Z,3.07
2018-11-06T15:43:34.343Z,3.10
2018-11-06T15:46:03.126Z,3.87
2018-11-06T15:48:31.793Z,3.30
2018-11-06T15:51:00.261Z,5.17
2018-11-06T15:53:28.758Z,4.10
2018-11-06T15:55:57.807Z,6.37
2018-11-06T15:58:26.323Z,4.43
2018-11-06T16:00:54.934Z,4.50
2018-11-06T16:03:23.392Z,3.47
2018-11-06T16:05:52.038Z,3.53
2018-11-06T16:08:20.890Z,4.77
2018-11-06T16:10:49.330Z,4.27
2018-11-06T16:13:17.749Z,4.30
2018-11-06T16:15:46.394Z,4.70
2018-11-06T16:18:14.871Z,4.70
2018-11-06T16:20:43.573Z,5.60
2018-11-06T16:23:12.231Z,5.00
2018-11-06T16:25:40.655Z,4.90
2018-11-06T16:28:10.146Z,4.17
2018-11-06T16:30:38.850Z,4.43
2018-11-06T16:33:07.293Z,4.80
2018-11-06T16:35:35.988Z,5.53
2018-11-06T16:38:04.714Z,6.17
2018-11-06T16:40:33.140Z,5.43
2018-11-06T16:43:01.584Z,4.97
2018-11-06T16:45:30.032Z,5.37
2018-11-06T16:47:58.458Z,4.90
2018-11-06T16:50:27.189Z,4.40
2018-11-06T16:52:55.623Z,3.90
2018-11-06T16:55:24.061Z,3.80
2018-11-06T16:57:52.426Z,5.30
2018-11-06T17:00:23.355Z,6.83
2018-11-06T17:02:51.682Z,4.20
2018-11-06T17:05:20.384Z,4.80
2018-11-06T17:07:49.068Z,4.60
2018-11-06T17:10:18.026Z,4.90
2018-11-06T17:12:46.508Z,4.43
2018-11-06T17:15:20.612Z,5.20
2018-11-06T17:17:49.988Z,5.40
2018-11-06T17:20:18.981Z,4.57
2018-11-06T17:22:47.474Z,5.37
2018-11-06T17:25:17.099Z,4.90
2018-11-06T17:27:45.619Z,6.07
2018-11-06T17:30:15.254Z,4.27
2018-11-06T17:32:44.270Z,5.00
2018-11-06T17:35:14.369Z,5.07
2018-11-06T17:37:42.922Z,5.50
2018-11-06T17:40:13.282Z,6.60
2018-11-06T17:42:42.196Z,5.13
2018-11-06T17:45:12.926Z,6.07
2018-11-06T17:47:41.777Z,5.80
2018-11-06T17:50:11.623Z,4.93
2018-11-06T17:52:40.255Z,5.90
2018-11-06T17:55:10.655Z,5.97
2018-11-06T17:57:39.752Z,6.13
2018-11-06T18:00:12.147Z,7.00
2018-11-06T18:02:41.198Z,7.50
2018-11-06T18:05:10.635Z,6.97
2018-11-06T18:07:39.568Z,6.83
2018-11-06T18:10:09.366Z,6.37
2018-11-06T18:12:38.753Z,6.60
2018-11-06T18:15:07.362Z,6.30
2018-11-06T18:17:36.211Z,6.63
2018-11-06T18:20:05.535Z,6.00
2018-11-06T18:22:34.466Z,6.87
2018-11-06T18:25:03.009Z,7.27
2018-11-06T18:27:31.477Z,8.20
2018-11-06T18:29:59.964Z,6.47
2018-11-06T18:32:28.523Z,6.90
2018-11-06T18:34:57.002Z,6.83
2018-11-06T18:37:25.678Z,7.33
2018-11-06T18:39:54.603Z,8.87
2018-11-06T18:42:23.161Z,7.17
2018-11-06T18:44:51.663Z,7.43
2018-11-06T18:47:20.551Z,7.33
2018-11-06T18:49:49.603Z,8.97
2018-11-06T18:52:18.106Z,8.57
2018-11-06T18:54:46.591Z,7.60
2018-11-06T18:57:15.762Z,8.10
2018-11-06T18:59:44.311Z,7.33
2018-11-06T19:02:12.879Z,7.20
2018-11-06T19:04:41.546Z,8.07
2018-11-06T19:07:10.187Z,7.50
2018-11-06T19:09:38.681Z,9.77
2018-11-06T19:12:07.281Z,7.10
2018-11-06T19:14:35.937Z,7.57
2018-11-06T19:17:05.616Z,7.70
2018-11-06T19:19:34.191Z,8.77
2018-11-06T19:22:02.679Z,8.77
2018-11-06T19:24:31.217Z,8.47
2018-11-06T19:26:59.717Z,8.40
2018-11-06T19:29:28.220Z,6.90
2018-11-06T19:31:56.731Z,7.97
2018-11-06T19:34:25.263Z,14.57
2018-11-06T19:36:53.780Z,16.17
2018-11-06T19:39:22.288Z,7.77
2018-11-06T19:41:50.813Z,5.40
2018-11-06T19:44:19.359Z,5.27
2018-11-06T19:46:48.241Z,5.07
2018-11-06T19:49:16.804Z,5.73
2018-11-06T19:51:45.497Z,5.43
2018-11-06T19:54:14.168Z,5.83
2018-11-06T19:56:42.559Z,5.03
2018-11-06T19:59:11.222Z,5.73
2018-11-06T20:01:39.722Z,5.87
2018-11-06T20:04:08.183Z,5.70
2018-11-06T20:06:36.696Z,6.80
2018-11-06T20:09:07.419Z,6.23
2018-11-06T20:11:36.271Z,6.20
2018-11-06T20:14:04.793Z,6.27
2018-11-06T20:16:33.195Z,7.20
2018-11-06T20:19:01.607Z,7.43
2018-11-06T20:21:30.141Z,6.80
2018-11-06T20:23:58.666Z,6.33
2018-11-06T20:26:27.419Z,6.20
2018-11-06T20:28:55.990Z,5.97
2018-11-06T20:31:24.455Z,6.30
2018-11-06T20:33:52.975Z,6.33
2018-11-06T20:36:21.483Z,7.10
2018-11-06T20:38:50.143Z,9.33
2018-11-06T20:41:18.742Z,10.03
2018-11-06T20:43:47.207Z,7.20
2018-11-06T20:46:15.698Z,9.00
2018-11-06T20:48:44.166Z,59.10
2018-11-06T20:51:12.771Z,7.70
2018-11-06T20:53:41.272Z,6.80
2018-11-06T20:56:09.913Z,6.93
2018-11-06T20:58:38.132Z,7.03
2018-11-06T21:01:07.113Z,7.10
2018-11-06T21:03:35.457Z,5.50
2018-11-06T21:06:03.936Z,7.67
2018-11-06T21:08:32.286Z,7.20
2018-11-06T21:11:00.794Z,7.40
2018-11-06T21:13:29.047Z,6.93
2018-11-06T21:15:57.536Z,7.17
2018-11-06T21:18:26.051Z,7.30
2018-11-06T21:20:54.406Z,7.60
2018-11-06T21:23:23.042Z,7.63
2018-11-06T21:25:51.677Z,6.57
2018-11-06T21:28:19.856Z,7.70
2018-11-06T21:30:48.258Z,7.37
2018-11-06T21:33:16.659Z,6.93
2018-11-06T21:35:45.143Z,7.73
2018-11-06T21:38:13.536Z,7.20
2018-11-06T21:40:41.918Z,6.43
2018-11-06T21:43:10.314Z,8.10
2018-11-06T21:45:38.795Z,8.13
2018-11-06T21:48:07.232Z,7.40
2018-11-06T21:50:35.698Z,8.27
2018-11-06T21:53:04.107Z,9.20
2018-11-06T21:55:32.480Z,7.37
2018-11-06T21:58:00.848Z,8.67
2018-11-06T22:00:29.351Z,7.73
2018-11-06T22:02:57.662Z,8.20
2018-11-06T22:05:26.086Z,8.63
2018-11-06T22:07:54.488Z,8.50
2018-11-06T22:10:22.889Z,8.23
2018-11-06T22:12:51.343Z,8.43
2018-11-06T22:15:20.130Z,8.67
2018-11-06T22:17:48.701Z,8.60
2018-11-06T22:20:18.319Z,9.03
2018-11-06T22:22:47.170Z,9.40
2018-11-06T22:25:15.602Z,8.47
2018-11-06T22:27:44.252Z,9.43
2018-11-06T22:30:13.784Z,9.00
2018-11-06T22:32:42.964Z,11.07
2018-11-06T22:35:13.290Z,13.30
2018-11-06T22:37:41.917Z,12.87
2018-11-06T22:40:11.806Z,13.00
2018-11-06T22:42:40.291Z,10.20
2018-11-06T22:45:11.468Z,9.63
2018-11-06T22:47:40.152Z,9.90
2018-11-06T22:50:10.247Z,10.10
2018-11-06T22:52:38.660Z,9.10
2018-11-06T22:55:07.502Z,9.07
2018-11-06T22:57:36.182Z,9.27
2018-11-06T23:00:10.619Z,8.73
2018-11-06T23:02:40.480Z,9.53
2018-11-06T23:05:08.922Z,9.70
2018-11-06T23:07:42.632Z,9.07
2018-11-06T23:10:11.651Z,8.63
2018-11-06T23:12:40.218Z,8.13
2018-11-06T23:15:08.674Z,9.13
2018-11-06T23:17:37.131Z,8.47
2018-11-06T23:20:06.269Z,7.30
2018-11-06T23:22:34.654Z,7.40
2018-11-06T23:25:03.246Z,8.07
2018-11-06T23:27:31.825Z,8.90
2018-11-06T23:30:00.312Z,7.00
2018-11-06T23:32:28.711Z,8.10
2018-11-06T23:34:57.080Z,7.50
2018-11-06T23:37:25.500Z,7.00
2018-11-06T23:39:54.155Z,7.20
2018-11-06T23:42:22.648Z,8.83
2018-11-06T23:44:51.055Z,8.40
2018-11-06T23:47:19.436Z,8.00
2018-11-06T23:49:48.041Z,7.27
2018-11-06T23:52:16.587Z,7.40
2018-11-06T23:54:45.226Z,7.43
2018-11-06T23:57:13.910Z,8.47
2018-11-06T23:59:42.380Z,7.50
